sensor_id;sensor_type;location;lat;lon;timestamp;pressure;altitude;pressure_sealevel;temperature;humidity
64139;BME280;50435;43.700;-79.318;2022-07-29T00:00:08;99399.43;;;28.44;33.58
64139;BME280;50435;43.700;-79.318;2022-07-29T00:02:36;99399.66;;;27.93;33.50
64139;BME280;50435;43.700;-79.318;2022-07-29T00:05:04;99406.27;;;27.87;33.54
64139;BME280;50435;43.700;-79.318;2022-07-29T00:07:32;99411.05;;;27.28;33.24
64139;BME280;50435;43.700;-79.318;2022-07-29T00:09:59;99417.34;;;27.92;33.35
64139;BME280;50435;43.700;-79.318;2022-07-29T00:12:27;99415.35;;;28.11;33.18
64139;BME280;50435;43.700;-79.318;2022-07-29T00:14:55;99421.60;;;28.01;33.31
64139;BME280;50435;43.700;-79.318;2022-07-29T00:17:22;99425.49;;;28.02;33.50
64139;BME280;50435;43.700;-79.318;2022-07-29T00:19:50;99430.56;;;27.69;33.57
64139;BME280;50435;43.700;-79.318;2022-07-29T00:22:17;99431.96;;;27.94;33.60
64139;BME280;50435;43.700;-79.318;2022-07-29T00:24:44;99432.27;;;27.85;33.66
64139;BME280;50435;43.700;-79.318;2022-07-29T00:27:12;99429.26;;;27.65;33.98
64139;BME280;50435;43.700;-79.318;2022-07-29T00:29:39;99426.48;;;27.07;34.13
64139;BME280;50435;43.700;-79.318;2022-07-29T00:32:07;99431.07;;;27.80;34.12
64139;BME280;50435;43.700;-79.318;2022-07-29T00:34:34;99439.36;;;26.31;34.20
64139;BME280;50435;43.700;-79.318;2022-07-29T00:37:02;99446.41;;;27.68;34.43
64139;BME280;50435;43.700;-79.318;2022-07-29T00:39:29;99447.62;;;27.37;34.44
64139;BME280;50435;43.700;-79.318;2022-07-29T00:41:56;99445.65;;;27.21;34.56
64139;BME280;50435;43.700;-79.318;2022-07-29T00:44:24;99449.07;;;27.37;34.66
64139;BME280;50435;43.700;-79.318;2022-07-29T00:46:51;99451.42;;;27.26;34.91
64139;BME280;50435;43.700;-79.318;2022-07-29T00:49:18;99454.82;;;27.23;35.04
64139;BME280;50435;43.700;-79.318;2022-07-29T00:51:46;99454.68;;;26.89;35.21
64139;BME280;50435;43.700;-79.318;2022-07-29T00:54:15;99461.16;;;27.07;35.30
64139;BME280;50435;43.700;-79.318;2022-07-29T00:56:42;99468.29;;;26.73;35.53
64139;BME280;50435;43.700;-79.318;2022-07-29T00:59:09;99475.42;;;27.15;35.64
64139;BME280;50435;43.700;-79.318;2022-07-29T01:01:37;99480.64;;;26.60;35.83
64139;BME280;50435;43.700;-79.318;2022-07-29T01:04:05;99479.88;;;27.05;35.97
64139;BME280;50435;43.700;-79.318;2022-07-29T01:06:33;99484.96;;;26.57;35.79
64139;BME280;50435;43.700;-79.318;2022-07-29T01:09:01;99487.54;;;27.00;35.89
64139;BME280;50435;43.700;-79.318;2022-07-29T01:11:29;99487.58;;;27.02;35.90
64139;BME280;50435;43.700;-79.318;2022-07-29T01:13:57;99486.84;;;27.00;35.95
64139;BME280;50435;43.700;-79.318;2022-07-29T01:16:28;99486.79;;;26.96;36.00
64139;BME280;50435;43.700;-79.318;2022-07-29T01:19:10;99491.38;;;26.88;35.97
64139;BME280;50435;43.700;-79.318;2022-07-29T01:21:51;99492.71;;;26.32;36.13
64139;BME280;50435;43.700;-79.318;2022-07-29T01:24:45;99502.81;;;26.75;36.24
64139;BME280;50435;43.700;-79.318;2022-07-29T01:27:32;99508.81;;;26.70;36.40
64139;BME280;50435;43.700;-79.318;2022-07-29T01:30:06;99513.76;;;26.63;36.49
64139;BME280;50435;43.700;-79.318;2022-07-29T01:32:36;99519.79;;;26.08;36.68
64139;BME280;50435;43.700;-79.318;2022-07-29T01:35:06;99523.57;;;26.67;36.93
64139;BME280;50435;43.700;-79.318;2022-07-29T01:37:43;99524.82;;;26.00;36.81
64139;BME280;50435;43.700;-79.318;2022-07-29T01:40:22;99528.42;;;26.88;36.91
64139;BME280;50435;43.700;-79.318;2022-07-29T01:42:54;99534.33;;;26.38;37.05
64139;BME280;50435;43.700;-79.318;2022-07-29T01:45:24;99536.50;;;26.31;37.22
64139;BME280;50435;43.700;-79.318;2022-07-29T01:47:58;99539.18;;;26.53;37.23
64139;BME280;50435;43.700;-79.318;2022-07-29T01:50:31;99542.34;;;26.67;37.47
64139;BME280;50435;43.700;-79.318;2022-07-29T01:53:04;99540.90;;;26.27;37.79
64139;BME280;50435;43.700;-79.318;2022-07-29T01:55:44;99541.85;;;25.60;37.72
64139;BME280;50435;43.700;-79.318;2022-07-29T01:58:14;99545.26;;;26.24;37.96
64139;BME280;50435;43.700;-79.318;2022-07-29T02:00:45;99549.89;;;25.94;37.93
64139;BME280;50435;43.700;-79.318;2022-07-29T02:03:16;99554.53;;;26.34;38.05
64139;BME280;50435;43.700;-79.318;2022-07-29T02:05:46;99558.25;;;26.02;38.43
64139;BME280;50435;43.700;-79.318;2022-07-29T02:08:15;99554.68;;;26.01;38.04
64139;BME280;50435;43.700;-79.318;2022-07-29T02:10:46;99551.61;;;26.26;38.12
64139;BME280;50435;43.700;-79.318;2022-07-29T02:13:16;99549.70;;;26.06;38.42
64139;BME280;50435;43.700;-79.318;2022-07-29T02:15:45;99552.72;;;25.58;38.85
64139;BME280;50435;43.700;-79.318;2022-07-29T02:18:16;99555.53;;;26.10;38.34
64139;BME280;50435;43.700;-79.318;2022-07-29T02:20:47;99552.66;;;25.61;38.62
64139;BME280;50435;43.700;-79.318;2022-07-29T02:23:19;99552.59;;;26.02;38.51
64139;BME280;50435;43.700;-79.318;2022-07-29T02:25:48;99557.09;;;25.72;38.34
64139;BME280;50435;43.700;-79.318;2022-07-29T02:28:17;99554.25;;;25.90;38.56
64139;BME280;50435;43.700;-79.318;2022-07-29T02:30:47;99553.91;;;25.91;38.56
64139;BME280;50435;43.700;-79.318;2022-07-29T02:33:16;99552.17;;;25.85;38.29
64139;BME280;50435;43.700;-79.318;2022-07-29T02:35:47;99553.38;;;25.85;38.79
64139;BME280;50435;43.700;-79.318;2022-07-29T02:38:16;99557.18;;;25.83;38.61
64139;BME280;50435;43.700;-79.318;2022-07-29T02:40:43;99554.66;;;25.75;38.67
64139;BME280;50435;43.700;-79.318;2022-07-29T02:43:11;99555.69;;;25.76;38.75
64139;BME280;50435;43.700;-79.318;2022-07-29T02:45:39;99555.18;;;25.46;38.89
64139;BME280;50435;43.700;-79.318;2022-07-29T02:48:12;99556.00;;;25.66;38.97
64139;BME280;50435;43.700;-79.318;2022-07-29T02:50:46;99558.38;;;25.13;38.72
64139;BME280;50435;43.700;-79.318;2022-07-29T02:53:18;99560.37;;;25.64;38.70
64139;BME280;50435;43.700;-79.318;2022-07-29T02:55:56;99569.00;;;25.30;39.05
64139;BME280;50435;43.700;-79.318;2022-07-29T02:58:28;99575.97;;;25.41;39.44
64139;BME280;50435;43.700;-79.318;2022-07-29T03:00:58;99584.51;;;25.20;39.63
64139;BME280;50435;43.700;-79.318;2022-07-29T03:03:29;99591.87;;;25.71;38.52
64139;BME280;50435;43.700;-79.318;2022-07-29T03:06:01;99591.40;;;25.41;38.50
64139;BME280;50435;43.700;-79.318;2022-07-29T03:08:28;99592.15;;;25.29;38.58
64139;BME280;50435;43.700;-79.318;2022-07-29T03:10:57;99592.27;;;25.20;38.64
64139;BME280;50435;43.700;-79.318;2022-07-29T03:13:26;99595.39;;;25.23;38.63
64139;BME280;50435;43.700;-79.318;2022-07-29T03:15:54;99601.16;;;24.95;38.48
64139;BME280;50435;43.700;-79.318;2022-07-29T03:18:22;99604.36;;;25.63;38.48
64139;BME280;50435;43.700;-79.318;2022-07-29T03:20:50;99606.96;;;25.14;38.29
64139;BME280;50435;43.700;-79.318;2022-07-29T03:23:19;99614.28;;;25.15;38.49
64139;BME280;50435;43.700;-79.318;2022-07-29T03:25:47;99611.85;;;25.08;38.21
64139;BME280;50435;43.700;-79.318;2022-07-29T03:28:14;99615.01;;;25.02;38.34
64139;BME280;50435;43.700;-79.318;2022-07-29T03:30:41;99616.06;;;24.95;38.35
64139;BME280;50435;43.700;-79.318;2022-07-29T03:33:10;99616.86;;;24.97;38.45
64139;BME280;50435;43.700;-79.318;2022-07-29T03:35:38;99616.69;;;24.19;38.50
64139;BME280;50435;43.700;-79.318;2022-07-29T03:38:05;99610.28;;;25.34;38.33
64139;BME280;50435;43.700;-79.318;2022-07-29T03:40:35;99607.02;;;24.54;38.55
64139;BME280;50435;43.700;-79.318;2022-07-29T03:43:06;99602.41;;;24.79;38.11
64139;BME280;50435;43.700;-79.318;2022-07-29T03:45:35;99604.76;;;24.27;38.48
64139;BME280;50435;43.700;-79.318;2022-07-29T03:48:08;99603.44;;;24.69;38.50
64139;BME280;50435;43.700;-79.318;2022-07-29T03:50:37;99600.48;;;24.34;38.78
64139;BME280;50435;43.700;-79.318;2022-07-29T03:53:04;99598.16;;;25.01;39.04
64139;BME280;50435;43.700;-79.318;2022-07-29T03:55:37;99602.06;;;24.03;39.27
64139;BME280;50435;43.700;-79.318;2022-07-29T03:58:08;99606.92;;;24.87;39.67
64139;BME280;50435;43.700;-79.318;2022-07-29T04:00:36;99607.71;;;24.13;39.44
64139;BME280;50435;43.700;-79.318;2022-07-29T04:03:04;99611.69;;;24.85;39.72
64139;BME280;50435;43.700;-79.318;2022-07-29T04:05:31;99615.87;;;23.86;39.72
64139;BME280;50435;43.700;-79.318;2022-07-29T04:07:59;99620.26;;;24.70;40.16
64139;BME280;50435;43.700;-79.318;2022-07-29T04:10:26;99622.07;;;24.73;40.62
64139;BME280;50435;43.700;-79.318;2022-07-29T04:12:54;99626.21;;;24.68;40.38
64139;BME280;50435;43.700;-79.318;2022-07-29T04:15:22;99628.19;;;24.47;39.96
64139;BME280;50435;43.700;-79.318;2022-07-29T04:17:49;99632.54;;;24.54;40.59
64139;BME280;50435;43.700;-79.318;2022-07-29T04:20:17;99634.61;;;24.26;40.35
64139;BME280;50435;43.700;-79.318;2022-07-29T04:22:44;99634.66;;;23.95;41.54
64139;BME280;50435;43.700;-79.318;2022-07-29T04:25:12;99631.46;;;24.45;40.50
64139;BME280;50435;43.700;-79.318;2022-07-29T04:27:39;99631.55;;;23.97;41.53
64139;BME280;50435;43.700;-79.318;2022-07-29T04:30:07;99634.61;;;24.40;40.59
64139;BME280;50435;43.700;-79.318;2022-07-29T04:32:35;99638.65;;;23.61;41.25
64139;BME280;50435;43.700;-79.318;2022-07-29T04:35:04;99640.76;;;24.56;40.73
64139;BME280;50435;43.700;-79.318;2022-07-29T04:37:31;99637.34;;;23.85;40.94
64139;BME280;50435;43.700;-79.318;2022-07-29T04:39:58;99637.71;;;24.19;41.25
64139;BME280;50435;43.700;-79.318;2022-07-29T04:42:26;99641.75;;;24.13;41.78
64139;BME280;50435;43.700;-79.318;2022-07-29T04:44:53;99645.36;;;24.10;41.22
64139;BME280;50435;43.700;-79.318;2022-07-29T04:47:21;99647.42;;;24.04;41.60
64139;BME280;50435;43.700;-79.318;2022-07-29T04:49:48;99646.99;;;23.97;41.95
64139;BME280;50435;43.700;-79.318;2022-07-29T04:52:15;99643.99;;;24.13;42.31
64139;BME280;50435;43.700;-79.318;2022-07-29T04:54:43;99646.62;;;23.85;42.69
64139;BME280;50435;43.700;-79.318;2022-07-29T04:57:11;99647.36;;;24.10;42.35
64139;BME280;50435;43.700;-79.318;2022-07-29T04:59:38;99652.14;;;23.70;42.52
64139;BME280;50435;43.700;-79.318;2022-07-29T05:02:06;99655.94;;;23.99;42.55
64139;BME280;50435;43.700;-79.318;2022-07-29T05:04:33;99659.58;;;23.40;42.88
64139;BME280;50435;43.700;-79.318;2022-07-29T05:07:01;99658.16;;;23.60;43.17
64139;BME280;50435;43.700;-79.318;2022-07-29T05:09:28;99660.36;;;23.79;43.17
64139;BME280;50435;43.700;-79.318;2022-07-29T05:11:56;99660.28;;;23.97;43.04
64139;BME280;50435;43.700;-79.318;2022-07-29T05:14:23;99669.51;;;23.61;43.35
64139;BME280;50435;43.700;-79.318;2022-07-29T05:16:51;99674.45;;;23.45;43.32
64139;BME280;50435;43.700;-79.318;2022-07-29T05:19:18;99674.68;;;23.52;43.51
64139;BME280;50435;43.700;-79.318;2022-07-29T05:21:46;99670.83;;;23.47;44.07
64139;BME280;50435;43.700;-79.318;2022-07-29T05:24:13;99671.57;;;23.75;43.67
64139;BME280;50435;43.700;-79.318;2022-07-29T05:26:41;99670.26;;;23.06;43.95
64139;BME280;50435;43.700;-79.318;2022-07-29T05:29:08;99670.50;;;23.62;43.93
64139;BME280;50435;43.700;-79.318;2022-07-29T05:31:36;99669.93;;;23.25;43.77
64139;BME280;50435;43.700;-79.318;2022-07-29T05:34:04;99669.43;;;23.42;43.99
64139;BME280;50435;43.700;-79.318;2022-07-29T05:36:32;99668.64;;;22.73;43.84
64139;BME280;50435;43.700;-79.318;2022-07-29T05:38:59;99671.40;;;23.39;43.92
64139;BME280;50435;43.700;-79.318;2022-07-29T05:41:27;99670.92;;;23.60;43.87
64139;BME280;50435;43.700;-79.318;2022-07-29T05:43:54;99675.17;;;23.24;44.25
64139;BME280;50435;43.700;-79.318;2022-07-29T05:46:21;99668.74;;;23.50;44.18
64139;BME280;50435;43.700;-79.318;2022-07-29T05:48:49;99662.50;;;23.00;44.01
64139;BME280;50435;43.700;-79.318;2022-07-29T05:51:16;99666.01;;;23.44;44.08
64139;BME280;50435;43.700;-79.318;2022-07-29T05:53:43;99665.15;;;22.79;44.28
64139;BME280;50435;43.700;-79.318;2022-07-29T05:56:11;99671.61;;;23.41;43.83
64139;BME280;50435;43.700;-79.318;2022-07-29T05:58:38;99674.33;;;22.78;44.09
64139;BME280;50435;43.700;-79.318;2022-07-29T06:01:05;99675.85;;;23.04;44.07
64139;BME280;50435;43.700;-79.318;2022-07-29T06:03:33;99676.55;;;22.28;43.97
64139;BME280;50435;43.700;-79.318;2022-07-29T06:06:00;99672.46;;;23.09;44.30
64139;BME280;50435;43.700;-79.318;2022-07-29T06:08:27;99667.18;;;23.23;44.05
64139;BME280;50435;43.700;-79.318;2022-07-29T06:10:55;99662.31;;;23.07;44.08
64139;BME280;50435;43.700;-79.318;2022-07-29T06:13:22;99664.89;;;23.06;44.19
64139;BME280;50435;43.700;-79.318;2022-07-29T06:15:50;99664.46;;;22.93;44.43
64139;BME280;50435;43.700;-79.318;2022-07-29T06:18:17;99663.72;;;22.87;44.39
64139;BME280;50435;43.700;-79.318;2022-07-29T06:20:44;99665.76;;;22.93;44.12
64139;BME280;50435;43.700;-79.318;2022-07-29T06:23:12;99668.43;;;22.99;43.85
64139;BME280;50435;43.700;-79.318;2022-07-29T06:25:40;99667.53;;;22.32;44.25
64139;BME280;50435;43.700;-79.318;2022-07-29T06:28:07;99672.85;;;22.67;43.76
64139;BME280;50435;43.700;-79.318;2022-07-29T06:30:35;99673.54;;;21.94;43.97
64139;BME280;50435;43.700;-79.318;2022-07-29T06:33:02;99675.69;;;22.77;43.92
64139;BME280;50435;43.700;-79.318;2022-07-29T06:35:29;99675.84;;;22.56;44.27
64139;BME280;50435;43.700;-79.318;2022-07-29T06:37:57;99678.97;;;22.76;43.72
64139;BME280;50435;43.700;-79.318;2022-07-29T06:40:24;99681.04;;;22.67;43.95
64139;BME280;50435;43.700;-79.318;2022-07-29T06:42:52;99683.02;;;22.69;43.78
64139;BME280;50435;43.700;-79.318;2022-07-29T06:45:19;99687.74;;;22.63;43.57
64139;BME280;50435;43.700;-79.318;2022-07-29T06:47:47;99686.79;;;22.68;43.60
64139;BME280;50435;43.700;-79.318;2022-07-29T06:50:14;99690.78;;;22.55;43.68
64139;BME280;50435;43.700;-79.318;2022-07-29T06:52:42;99695.60;;;22.47;43.85
64139;BME280;50435;43.700;-79.318;2022-07-29T06:55:10;99694.87;;;22.40;43.60
64139;BME280;50435;43.700;-79.318;2022-07-29T06:57:37;99698.56;;;21.90;43.74
64139;BME280;50435;43.700;-79.318;2022-07-29T07:00:07;99704.42;;;22.84;43.64
64139;BME280;50435;43.700;-79.318;2022-07-29T07:02:34;99709.87;;;21.16;43.61
64139;BME280;50435;43.700;-79.318;2022-07-29T07:05:02;99713.26;;;22.73;43.82
64139;BME280;50435;43.700;-79.318;2022-07-29T07:07:29;99714.93;;;22.12;44.04
64139;BME280;50435;43.700;-79.318;2022-07-29T07:09:57;99716.09;;;22.16;43.78
64139;BME280;50435;43.700;-79.318;2022-07-29T07:12:24;99718.76;;;22.38;43.84
64139;BME280;50435;43.700;-79.318;2022-07-29T07:14:52;99718.60;;;22.32;43.74
64139;BME280;50435;43.700;-79.318;2022-07-29T07:17:19;99724.49;;;22.45;44.03
64139;BME280;50435;43.700;-79.318;2022-07-29T07:19:47;99722.17;;;21.99;43.83
64139;BME280;50435;43.700;-79.318;2022-07-29T07:22:14;99728.13;;;22.14;43.95
64139;BME280;50435;43.700;-79.318;2022-07-29T07:24:42;99729.45;;;21.53;44.23
64139;BME280;50435;43.700;-79.318;2022-07-29T07:27:09;99730.63;;;22.06;43.98
64139;BME280;50435;43.700;-79.318;2022-07-29T07:29:37;99735.13;;;21.53;43.92
64139;BME280;50435;43.700;-79.318;2022-07-29T07:32:05;99737.82;;;22.05;43.92
64139;BME280;50435;43.700;-79.318;2022-07-29T07:34:32;99738.62;;;21.17;44.07
64139;BME280;50435;43.700;-79.318;2022-07-29T07:37:00;99743.72;;;21.79;44.32
64139;BME280;50435;43.700;-79.318;2022-07-29T07:39:28;99744.82;;;21.90;44.48
64139;BME280;50435;43.700;-79.318;2022-07-29T07:41:55;99743.89;;;21.62;44.48
64139;BME280;50435;43.700;-79.318;2022-07-29T07:44:22;99748.47;;;21.83;44.51
64139;BME280;50435;43.700;-79.318;2022-07-29T07:46:50;99749.29;;;21.62;44.36
64139;BME280;50435;43.700;-79.318;2022-07-29T07:49:17;99749.19;;;21.78;44.41
64139;BME280;50435;43.700;-79.318;2022-07-29T07:51:45;99751.52;;;21.57;44.43
64139;BME280;50435;43.700;-79.318;2022-07-29T07:54:12;99749.98;;;21.72;44.49
64139;BME280;50435;43.700;-79.318;2022-07-29T07:56:40;99752.65;;;21.18;44.45
64139;BME280;50435;43.700;-79.318;2022-07-29T07:59:07;99750.90;;;21.65;44.45
64139;BME280;50435;43.700;-79.318;2022-07-29T08:01:35;99749.86;;;20.62;44.52
64139;BME280;50435;43.700;-79.318;2022-07-29T08:04:03;99752.14;;;21.60;44.54
64139;BME280;50435;43.700;-79.318;2022-07-29T08:06:30;99758.17;;;21.27;44.58
64139;BME280;50435;43.700;-79.318;2022-07-29T08:08:58;99755.32;;;21.60;44.71
64139;BME280;50435;43.700;-79.318;2022-07-29T08:11:25;99761.27;;;21.86;44.74
64139;BME280;50435;43.700;-79.318;2022-07-29T08:13:53;99763.23;;;21.40;44.55
64139;BME280;50435;43.700;-79.318;2022-07-29T08:16:20;99760.13;;;21.39;44.58
64139;BME280;50435;43.700;-79.318;2022-07-29T08:18:48;99762.26;;;21.37;44.63
64139;BME280;50435;43.700;-79.318;2022-07-29T08:21:16;99763.73;;;21.35;44.55
64139;BME280;50435;43.700;-79.318;2022-07-29T08:23:44;99763.70;;;20.96;44.41
64139;BME280;50435;43.700;-79.318;2022-07-29T08:26:12;99762.37;;;21.34;44.46
64139;BME280;50435;43.700;-79.318;2022-07-29T08:28:41;99760.13;;;20.86;44.51
64139;BME280;50435;43.700;-79.318;2022-07-29T08:31:09;99763.00;;;21.28;44.60
64139;BME280;50435;43.700;-79.318;2022-07-29T08:33:37;99760.79;;;20.49;44.61
64139;BME280;50435;43.700;-79.318;2022-07-29T08:36:05;99762.20;;;21.17;44.62
64139;BME280;50435;43.700;-79.318;2022-07-29T08:38:33;99766.02;;;20.42;44.70
64139;BME280;50435;43.700;-79.318;2022-07-29T08:41:01;99761.91;;;20.90;45.14
64139;BME280;50435;43.700;-79.318;2022-07-29T08:43:29;99761.59;;;21.18;44.96
64139;BME280;50435;43.700;-79.318;2022-07-29T08:45:56;99762.95;;;21.23;44.79
64139;BME280;50435;43.700;-79.318;2022-07-29T08:48:24;99769.79;;;21.41;44.71
64139;BME280;50435;43.700;-79.318;2022-07-29T08:50:54;99770.31;;;21.00;45.09
64139;BME280;50435;43.700;-79.318;2022-07-29T08:53:22;99774.49;;;20.91;45.24
64139;BME280;50435;43.700;-79.318;2022-07-29T08:55:50;99773.56;;;20.76;45.11
64139;BME280;50435;43.700;-79.318;2022-07-29T08:58:19;99768.73;;;20.94;45.09
64139;BME280;50435;43.700;-79.318;2022-07-29T09:00:51;99769.68;;;21.12;45.10
64139;BME280;50435;43.700;-79.318;2022-07-29T09:03:19;99773.35;;;21.10;45.18
64139;BME280;50435;43.700;-79.318;2022-07-29T09:05:47;99772.31;;;20.63;45.02
64139;BME280;50435;43.700;-79.318;2022-07-29T09:08:16;99770.45;;;20.99;45.25
64139;BME280;50435;43.700;-79.318;2022-07-29T09:10:44;99774.57;;;20.72;45.37
64139;BME280;50435;43.700;-79.318;2022-07-29T09:13:11;99776.99;;;21.00;45.26
64139;BME280;50435;43.700;-79.318;2022-07-29T09:15:39;99781.04;;;20.55;45.20
64139;BME280;50435;43.700;-79.318;2022-07-29T09:18:06;99786.64;;;20.65;45.41
64139;BME280;50435;43.700;-79.318;2022-07-29T09:20:34;99791.06;;;19.69;45.54
64139;BME280;50435;43.700;-79.318;2022-07-29T09:23:07;99788.90;;;20.81;45.43
64139;BME280;50435;43.700;-79.318;2022-07-29T09:25:36;99789.39;;;19.43;45.17
64139;BME280;50435;43.700;-79.318;2022-07-29T09:28:07;99785.99;;;20.86;45.29
64139;BME280;50435;43.700;-79.318;2022-07-29T09:30:35;99792.28;;;19.54;45.30
64139;BME280;50435;43.700;-79.318;2022-07-29T09:33:03;99791.30;;;20.78;45.18
64139;BME280;50435;43.700;-79.318;2022-07-29T09:35:31;99789.43;;;20.28;45.42
64139;BME280;50435;43.700;-79.318;2022-07-29T09:38:10;99789.27;;;20.68;45.22
64139;BME280;50435;43.700;-79.318;2022-07-29T09:40:37;99790.53;;;19.88;45.59
64139;BME280;50435;43.700;-79.318;2022-07-29T09:43:11;99792.04;;;20.65;45.46
64139;BME280;50435;43.700;-79.318;2022-07-29T09:45:38;99790.79;;;20.12;45.49
64139;BME280;50435;43.700;-79.318;2022-07-29T09:48:14;99792.88;;;20.56;45.50
64139;BME280;50435;43.700;-79.318;2022-07-29T09:50:43;99791.83;;;20.05;45.25
64139;BME280;50435;43.700;-79.318;2022-07-29T09:53:11;99799.25;;;20.44;45.67
64139;BME280;50435;43.700;-79.318;2022-07-29T09:55:54;99802.43;;;19.97;45.50
64139;BME280;50435;43.700;-79.318;2022-07-29T09:58:22;99805.88;;;20.28;45.96
64139;BME280;50435;43.700;-79.318;2022-07-29T10:00:51;99808.65;;;20.10;45.72
64139;BME280;50435;43.700;-79.318;2022-07-29T10:03:19;99813.05;;;20.27;45.62
64139;BME280;50435;43.700;-79.318;2022-07-29T10:06:04;99818.05;;;20.21;45.80
64139;BME280;50435;43.700;-79.318;2022-07-29T10:08:31;99819.53;;;19.47;45.99
64139;BME280;50435;43.700;-79.318;2022-07-29T10:11:09;99824.14;;;20.14;45.76
64139;BME280;50435;43.700;-79.318;2022-07-29T10:13:38;99828.44;;;19.63;45.77
64139;BME280;50435;43.700;-79.318;2022-07-29T10:16:06;99832.09;;;20.14;45.88
64139;BME280;50435;43.700;-79.318;2022-07-29T10:18:34;99835.06;;;19.09;46.08
64139;BME280;50435;43.700;-79.318;2022-07-29T10:21:02;99839.64;;;19.95;45.91
64139;BME280;50435;43.700;-79.318;2022-07-29T10:23:30;99844.08;;;20.41;45.85
64139;BME280;50435;43.700;-79.318;2022-07-29T10:25:58;99847.73;;;19.95;45.91
64139;BME280;50435;43.700;-79.318;2022-07-29T10:28:25;99851.42;;;20.35;46.15
64139;BME280;50435;43.700;-79.318;2022-07-29T10:31:00;99850.12;;;20.10;46.19
64139;BME280;50435;43.700;-79.318;2022-07-29T10:33:41;99846.47;;;20.17;46.06
64139;BME280;50435;43.700;-79.318;2022-07-29T10:36:21;99849.94;;;20.38;45.93
64139;BME280;50435;43.700;-79.318;2022-07-29T10:38:57;99849.12;;;19.76;46.30
64139;BME280;50435;43.700;-79.318;2022-07-29T10:41:46;99851.54;;;20.49;46.19
64139;BME280;50435;43.700;-79.318;2022-07-29T10:44:17;99852.19;;;19.86;46.08
64139;BME280;50435;43.700;-79.318;2022-07-29T10:46:46;99851.94;;;19.83;46.15
64139;BME280;50435;43.700;-79.318;2022-07-29T10:49:15;99852.16;;;19.84;46.12
64139;BME280;50435;43.700;-79.318;2022-07-29T10:52:14;99855.71;;;19.44;46.29
64139;BME280;50435;43.700;-79.318;2022-07-29T10:54:48;99859.89;;;19.52;46.14
64139;BME280;50435;43.700;-79.318;2022-07-29T10:57:19;99863.48;;;20.17;46.13
64139;BME280;50435;43.700;-79.318;2022-07-29T10:59:48;99864.04;;;19.71;46.28
64139;BME280;50435;43.700;-79.318;2022-07-29T11:02:48;99867.58;;;20.05;46.38
64139;BME280;50435;43.700;-79.318;2022-07-29T11:05:17;99868.55;;;19.89;46.38
64139;BME280;50435;43.700;-79.318;2022-07-29T11:08:20;99870.45;;;19.63;46.30
64139;BME280;50435;43.700;-79.318;2022-07-29T11:10:48;99872.92;;;19.95;46.20
64139;BME280;50435;43.700;-79.318;2022-07-29T11:13:50;99875.89;;;20.03;46.49
64139;BME280;50435;43.700;-79.318;2022-07-29T11:16:18;99874.58;;;20.01;46.21
64139;BME280;50435;43.700;-79.318;2022-07-29T11:19:51;99876.69;;;19.69;46.28
64139;BME280;50435;43.700;-79.318;2022-07-29T11:22:56;99876.13;;;19.90;46.12
64139;BME280;50435;43.700;-79.318;2022-07-29T11:25:24;99878.41;;;19.87;46.51
64139;BME280;50435;43.700;-79.318;2022-07-29T11:27:53;99880.25;;;19.87;46.42
64139;BME280;50435;43.700;-79.318;2022-07-29T11:30:21;99884.64;;;20.11;46.46
64139;BME280;50435;43.700;-79.318;2022-07-29T11:33:27;99886.04;;;19.96;46.70
64139;BME280;50435;43.700;-79.318;2022-07-29T11:36:13;99891.09;;;19.88;46.49
64139;BME280;50435;43.700;-79.318;2022-07-29T11:38:41;99897.08;;;19.54;46.60
64139;BME280;50435;43.700;-79.318;2022-07-29T11:41:20;99894.28;;;19.80;46.69
64139;BME280;50435;43.700;-79.318;2022-07-29T11:43:48;99892.84;;;19.61;46.32
64139;BME280;50435;43.700;-79.318;2022-07-29T11:46:41;99893.56;;;20.33;46.49
64139;BME280;50435;43.700;-79.318;2022-07-29T11:49:09;99898.00;;;20.06;46.45
64139;BME280;50435;43.700;-79.318;2022-07-29T11:51:37;99896.83;;;19.36;46.46
64139;BME280;50435;43.700;-79.318;2022-07-29T11:54:05;99898.42;;;20.14;46.58
64139;BME280;50435;43.700;-79.318;2022-07-29T11:56:32;99897.98;;;19.19;46.62
64139;BME280;50435;43.700;-79.318;2022-07-29T11:59:07;99896.39;;;20.04;46.60
64139;BME280;50435;43.700;-79.318;2022-07-29T12:01:35;99896.77;;;19.13;46.71
64139;BME280;50435;43.700;-79.318;2022-07-29T12:04:03;99897.69;;;19.88;46.65
64139;BME280;50435;43.700;-79.318;2022-07-29T12:06:32;99894.78;;;19.60;46.77
64139;BME280;50435;43.700;-79.318;2022-07-29T12:08:59;99894.40;;;19.66;46.67
64139;BME280;50435;43.700;-79.318;2022-07-29T12:11:27;99896.87;;;20.18;46.59
64139;BME280;50435;43.700;-79.318;2022-07-29T12:13:55;99892.96;;;19.86;46.77
64139;BME280;50435;43.700;-79.318;2022-07-29T12:16:22;99891.12;;;19.99;47.08
64139;BME280;50435;43.700;-79.318;2022-07-29T12:18:58;99896.74;;;19.68;47.16
64139;BME280;50435;43.700;-79.318;2022-07-29T12:21:26;99895.63;;;19.94;47.20
64139;BME280;50435;43.700;-79.318;2022-07-29T12:23:55;99897.21;;;19.64;47.35
64139;BME280;50435;43.700;-79.318;2022-07-29T12:26:22;99894.51;;;19.55;47.69
64139;BME280;50435;43.700;-79.318;2022-07-29T12:28:50;99895.14;;;19.32;47.58
64139;BME280;50435;43.700;-79.318;2022-07-29T12:31:18;99892.20;;;19.96;47.38
64139;BME280;50435;43.700;-79.318;2022-07-29T12:33:52;99894.81;;;19.64;46.95
64139;BME280;50435;43.700;-79.318;2022-07-29T12:36:20;99894.28;;;20.01;46.96
64139;BME280;50435;43.700;-79.318;2022-07-29T12:38:48;99892.96;;;20.05;46.44
64139;BME280;50435;43.700;-79.318;2022-07-29T12:41:16;99892.37;;;20.37;45.96
64139;BME280;50435;43.700;-79.318;2022-07-29T12:43:52;99891.63;;;20.10;46.02
64139;BME280;50435;43.700;-79.318;2022-07-29T12:46:20;99893.19;;;20.12;45.86
64139;BME280;50435;43.700;-79.318;2022-07-29T12:48:51;99894.39;;;20.16;45.91
64139;BME280;50435;43.700;-79.318;2022-07-29T12:51:28;99890.76;;;20.43;45.60
64139;BME280;50435;43.700;-79.318;2022-07-29T12:54:05;99894.75;;;20.58;45.34